sensor_id;sensor_type;location;lat;lon;timestamp;P1;durP1;ratioP1;P2;durP2;ratioP2
20855;SDS011;63058;49.424;8.420;2023-04-12T00:01:35;3.05;;;1.58;;
20855;SDS011;63058;49.424;8.420;2023-04-12T00:04:00;2.67;;;1.60;;
20855;SDS011;63058;49.424;8.420;2023-04-12T00:06:29;2.05;;;1.23;;
20855;SDS011;63058;49.424;8.420;2023-04-12T00:09:00;2.92;;;1.52;;
20855;SDS011;63058;49.424;8.420;2023-04-12T00:11:27;3.20;;;1.38;;
20855;SDS011;63058;49.424;8.420;2023-04-12T00:13:55;2.90;;;1.13;;
20855;SDS011;63058;49.424;8.420;2023-04-12T00:16:21;2.55;;;1.10;;
20855;SDS011;63058;49.424;8.420;2023-04-12T00:18:47;2.20;;;1.20;;
20855;SDS011;63058;49.424;8.420;2023-04-12T00:21:13;3.45;;;1.20;;
20855;SDS011;63058;49.424;8.420;2023-04-12T00:23:43;2.75;;;1.13;;
20855;SDS011;63058;49.424;8.420;2023-04-12T00:26:13;2.58;;;1.00;;
20855;SDS011;63058;49.424;8.420;2023-04-12T00:28:40;1.63;;;1.08;;
20855;SDS011;63058;49.424;8.420;2023-04-12T00:31:06;5.30;;;1.40;;
20855;SDS011;63058;49.424;8.420;2023-04-12T00:33:35;2.15;;;0.98;;
20855;SDS011;63058;49.424;8.420;2023-04-12T00:36:01;3.28;;;1.20;;
20855;SDS011;63058;49.424;8.420;2023-04-12T00:38:27;1.65;;;0.98;;
20855;SDS011;63058;49.424;8.420;2023-04-12T00:40:53;3.58;;;1.20;;
20855;SDS011;63058;49.424;8.420;2023-04-12T00:43:18;4.00;;;1.30;;
20855;SDS011;63058;49.424;8.420;2023-04-12T00:45:47;2.90;;;1.33;;
20855;SDS011;63058;49.424;8.420;2023-04-12T00:48:14;3.53;;;1.30;;
20855;SDS011;63058;49.424;8.420;2023-04-12T00:50:40;9.10;;;1.63;;
20855;SDS011;63058;49.424;8.420;2023-04-12T00:53:08;2.65;;;1.30;;
20855;SDS011;63058;49.424;8.420;2023-04-12T00:55:37;6.32;;;1.25;;
20855;SDS011;63058;49.424;8.420;2023-04-12T00:58:10;2.97;;;1.25;;
20855;SDS011;63058;49.424;8.420;2023-04-12T01:00:36;6.97;;;1.55;;
20855;SDS011;63058;49.424;8.420;2023-04-12T01:03:02;3.00;;;1.60;;
20855;SDS011;63058;49.424;8.420;2023-04-12T01:05:30;2.90;;;1.60;;
20855;SDS011;63058;49.424;8.420;2023-04-12T01:08:32;4.35;;;1.48;;
20855;SDS011;63058;49.424;8.420;2023-04-12T01:11:08;2.30;;;1.40;;
20855;SDS011;63058;49.424;8.420;2023-04-12T01:13:42;3.85;;;1.33;;
20855;SDS011;63058;49.424;8.420;2023-04-12T01:19:03;2.90;;;1.13;;
20855;SDS011;63058;49.424;8.420;2023-04-12T01:21:53;3.42;;;1.50;;
20855;SDS011;63058;49.424;8.420;2023-04-12T01:27:37;2.22;;;1.15;;
20855;SDS011;63058;49.424;8.420;2023-04-12T01:30:07;1.92;;;1.13;;
20855;SDS011;63058;49.424;8.420;2023-04-12T01:32:38;3.05;;;1.30;;
20855;SDS011;63058;49.424;8.420;2023-04-12T01:35:07;4.28;;;1.30;;
20855;SDS011;63058;49.424;8.420;2023-04-12T01:37:34;2.63;;;1.30;;
20855;SDS011;63058;49.424;8.420;2023-04-12T01:40:01;4.38;;;1.17;;
20855;SDS011;63058;49.424;8.420;2023-04-12T01:42:30;3.25;;;1.15;;
20855;SDS011;63058;49.424;8.420;2023-04-12T01:44:56;2.45;;;1.25;;
20855;SDS011;63058;49.424;8.420;2023-04-12T01:47:22;2.20;;;1.20;;
20855;SDS011;63058;49.424;8.420;2023-04-12T01:49:52;3.00;;;1.20;;
20855;SDS011;63058;49.424;8.420;2023-04-12T01:52:22;3.40;;;1.10;;
20855;SDS011;63058;49.424;8.420;2023-04-12T01:54:53;2.25;;;1.30;;
20855;SDS011;63058;49.424;8.420;2023-04-12T01:57:21;2.53;;;1.30;;
20855;SDS011;63058;49.424;8.420;2023-04-12T01:59:49;2.03;;;1.20;;
20855;SDS011;63058;49.424;8.420;2023-04-12T02:02:18;2.22;;;1.13;;
20855;SDS011;63058;49.424;8.420;2023-04-12T02:04:44;2.20;;;1.20;;
20855;SDS011;63058;49.424;8.420;2023-04-12T02:07:11;1.75;;;0.90;;
20855;SDS011;63058;49.424;8.420;2023-04-12T02:09:38;2.53;;;1.10;;
20855;SDS011;63058;49.424;8.420;2023-04-12T02:12:04;2.65;;;1.05;;
20855;SDS011;63058;49.424;8.420;2023-04-12T02:14:31;2.05;;;1.10;;
20855;SDS011;63058;49.424;8.420;2023-04-12T02:16:56;2.95;;;1.30;;
20855;SDS011;63058;49.424;8.420;2023-04-12T02:19:22;2.08;;;1.00;;
20855;SDS011;63058;49.424;8.420;2023-04-12T02:21:48;1.65;;;0.90;;
20855;SDS011;63058;49.424;8.420;2023-04-12T02:24:15;3.22;;;1.40;;
20855;SDS011;63058;49.424;8.420;2023-04-12T02:26:41;2.67;;;1.02;;
20855;SDS011;63058;49.424;8.420;2023-04-12T02:29:07;1.83;;;1.02;;
20855;SDS011;63058;49.424;8.420;2023-04-12T02:31:33;1.80;;;1.10;;
20855;SDS011;63058;49.424;8.420;2023-04-12T02:34:00;1.75;;;1.10;;
20855;SDS011;63058;49.424;8.420;2023-04-12T02:36:27;1.23;;;1.00;;
20855;SDS011;63058;49.424;8.420;2023-04-12T02:38:53;2.92;;;1.15;;
20855;SDS011;63058;49.424;8.420;2023-04-12T02:41:20;2.65;;;1.13;;
20855;SDS011;63058;49.424;8.420;2023-04-12T02:43:46;1.98;;;1.02;;
20855;SDS011;63058;49.424;8.420;2023-04-12T02:46:22;3.58;;;1.27;;
20855;SDS011;63058;49.424;8.420;2023-04-12T02:48:48;3.15;;;1.30;;
20855;SDS011;63058;49.424;8.420;2023-04-12T02:51:14;3.38;;;1.85;;
20855;SDS011;63058;49.424;8.420;2023-04-12T02:53:40;3.25;;;1.98;;
20855;SDS011;63058;49.424;8.420;2023-04-12T02:56:06;4.35;;;2.50;;
20855;SDS011;63058;49.424;8.420;2023-04-12T02:58:34;4.65;;;2.50;;
20855;SDS011;63058;49.424;8.420;2023-04-12T03:01:01;6.38;;;2.70;;
20855;SDS011;63058;49.424;8.420;2023-04-12T03:03:32;4.05;;;2.28;;
20855;SDS011;63058;49.424;8.420;2023-04-12T03:05:58;5.68;;;2.30;;
20855;SDS011;63058;49.424;8.420;2023-04-12T03:08:24;4.78;;;2.13;;
20855;SDS011;63058;49.424;8.420;2023-04-12T03:10:50;4.88;;;1.90;;
20855;SDS011;63058;49.424;8.420;2023-04-12T03:13:16;3.10;;;1.77;;
20855;SDS011;63058;49.424;8.420;2023-04-12T03:15:41;3.67;;;1.77;;
20855;SDS011;63058;49.424;8.420;2023-04-12T03:18:08;4.30;;;1.85;;
20855;SDS011;63058;49.424;8.420;2023-04-12T03:20:34;3.83;;;1.50;;
20855;SDS011;63058;49.424;8.420;2023-04-12T03:23:03;1.88;;;1.17;;
20855;SDS011;63058;49.424;8.420;2023-04-12T03:25:29;3.00;;;1.38;;
20855;SDS011;63058;49.424;8.420;2023-04-12T03:27:55;4.20;;;1.33;;
20855;SDS011;63058;49.424;8.420;2023-04-12T03:30:20;3.90;;;1.58;;
20855;SDS011;63058;49.424;8.420;2023-04-12T03:32:46;1.92;;;1.30;;
20855;SDS011;63058;49.424;8.420;2023-04-12T03:35:12;3.75;;;1.50;;
20855;SDS011;63058;49.424;8.420;2023-04-12T03:37:39;2.92;;;1.50;;
20855;SDS011;63058;49.424;8.420;2023-04-12T03:40:06;2.75;;;1.50;;
20855;SDS011;63058;49.424;8.420;2023-04-12T03:42:33;3.25;;;1.40;;
20855;SDS011;63058;49.424;8.420;2023-04-12T03:44:59;3.97;;;1.20;;
20855;SDS011;63058;49.424;8.420;2023-04-12T03:47:25;2.17;;;1.15;;
20855;SDS011;63058;49.424;8.420;2023-04-12T03:49:53;2.10;;;1.10;;
20855;SDS011;63058;49.424;8.420;2023-04-12T03:52:19;3.72;;;1.20;;
20855;SDS011;63058;49.424;8.420;2023-04-12T03:54:45;4.55;;;1.38;;
20855;SDS011;63058;49.424;8.420;2023-04-12T03:57:11;2.53;;;1.25;;
20855;SDS011;63058;49.424;8.420;2023-04-12T03:59:36;3.90;;;1.20;;
20855;SDS011;63058;49.424;8.420;2023-04-12T04:02:02;3.03;;;1.30;;
20855;SDS011;63058;49.424;8.420;2023-04-12T04:04:27;2.53;;;1.00;;
20855;SDS011;63058;49.424;8.420;2023-04-12T04:06:53;2.95;;;1.27;;
20855;SDS011;63058;49.424;8.420;2023-04-12T04:09:20;2.17;;;1.35;;
20855;SDS011;63058;49.424;8.420;2023-04-12T04:11:46;4.38;;;1.40;;
20855;SDS011;63058;49.424;8.420;2023-04-12T04:14:13;2.20;;;1.00;;
20855;SDS011;63058;49.424;8.420;2023-04-12T04:16:39;1.40;;;0.90;;
20855;SDS011;63058;49.424;8.420;2023-04-12T04:19:05;1.50;;;0.90;;
20855;SDS011;63058;49.424;8.420;2023-04-12T04:21:30;2.13;;;1.10;;
20855;SDS011;63058;49.424;8.420;2023-04-12T04:23:59;3.20;;;1.15;;
20855;SDS011;63058;49.424;8.420;2023-04-12T04:26:26;3.85;;;0.90;;
20855;SDS011;63058;49.424;8.420;2023-04-12T04:28:57;2.70;;;0.80;;
20855;SDS011;63058;49.424;8.420;2023-04-12T04:31:28;3.05;;;1.02;;
20855;SDS011;63058;49.424;8.420;2023-04-12T04:33:58;0.98;;;0.70;;
20855;SDS011;63058;49.424;8.420;2023-04-12T04:36:25;1.67;;;0.85;;
20855;SDS011;63058;49.424;8.420;2023-04-12T04:38:51;2.15;;;0.80;;
20855;SDS011;63058;49.424;8.420;2023-04-12T04:41:16;2.53;;;0.90;;
20855;SDS011;63058;49.424;8.420;2023-04-12T04:43:46;2.30;;;0.70;;
20855;SDS011;63058;49.424;8.420;2023-04-12T04:46:12;1.20;;;0.88;;
20855;SDS011;63058;49.424;8.420;2023-04-12T04:48:38;1.50;;;0.80;;
20855;SDS011;63058;49.424;8.420;2023-04-12T04:51:05;1.73;;;0.80;;
20855;SDS011;63058;49.424;8.420;2023-04-12T04:53:30;4.18;;;0.85;;
20855;SDS011;63058;49.424;8.420;2023-04-12T04:55:57;2.72;;;0.80;;
20855;SDS011;63058;49.424;8.420;2023-04-12T04:58:23;1.50;;;0.80;;
20855;SDS011;63058;49.424;8.420;2023-04-12T05:00:49;1.85;;;0.80;;
20855;SDS011;63058;49.424;8.420;2023-04-12T05:03:14;4.13;;;0.90;;
20855;SDS011;63058;49.424;8.420;2023-04-12T05:05:40;2.67;;;1.15;;
20855;SDS011;63058;49.424;8.420;2023-04-12T05:08:06;1.40;;;0.80;;
20855;SDS011;63058;49.424;8.420;2023-04-12T05:10:31;1.83;;;0.90;;
20855;SDS011;63058;49.424;8.420;2023-04-12T05:12:57;2.40;;;0.95;;
20855;SDS011;63058;49.424;8.420;2023-04-12T05:15:23;2.30;;;1.02;;
20855;SDS011;63058;49.424;8.420;2023-04-12T05:17:48;1.35;;;0.88;;
20855;SDS011;63058;49.424;8.420;2023-04-12T05:20:14;1.48;;;0.90;;
20855;SDS011;63058;49.424;8.420;2023-04-12T05:22:39;2.78;;;1.10;;
20855;SDS011;63058;49.424;8.420;2023-04-12T05:25:05;2.40;;;1.20;;
20855;SDS011;63058;49.424;8.420;2023-04-12T05:27:31;1.95;;;1.10;;
20855;SDS011;63058;49.424;8.420;2023-04-12T05:29:57;1.90;;;1.08;;
20855;SDS011;63058;49.424;8.420;2023-04-12T05:32:23;2.30;;;1.02;;
20855;SDS011;63058;49.424;8.420;2023-04-12T05:34:49;1.88;;;0.90;;
20855;SDS011;63058;49.424;8.420;2023-04-12T05:37:15;2.67;;;1.08;;
20855;SDS011;63058;49.424;8.420;2023-04-12T05:39:40;1.50;;;0.95;;
20855;SDS011;63058;49.424;8.420;2023-04-12T05:42:06;2.35;;;1.02;;
20855;SDS011;63058;49.424;8.420;2023-04-12T05:44:33;2.40;;;1.10;;
20855;SDS011;63058;49.424;8.420;2023-04-12T05:47:01;2.70;;;1.05;;
20855;SDS011;63058;49.424;8.420;2023-04-12T05:49:28;1.42;;;0.80;;
20855;SDS011;63058;49.424;8.420;2023-04-12T05:51:55;2.30;;;0.90;;
20855;SDS011;63058;49.424;8.420;2023-04-12T05:54:21;1.70;;;1.10;;
20855;SDS011;63058;49.424;8.420;2023-04-12T05:56:47;2.33;;;1.10;;
20855;SDS011;63058;49.424;8.420;2023-04-12T05:59:12;1.85;;;0.98;;
20855;SDS011;63058;49.424;8.420;2023-04-12T06:01:38;3.53;;;1.42;;
20855;SDS011;63058;49.424;8.420;2023-04-12T06:04:06;2.25;;;0.88;;
20855;SDS011;63058;49.424;8.420;2023-04-12T06:06:32;1.88;;;0.80;;
20855;SDS011;63058;49.424;8.420;2023-04-12T06:08:58;2.05;;;1.05;;
20855;SDS011;63058;49.424;8.420;2023-04-12T06:11:25;1.65;;;0.90;;
20855;SDS011;63058;49.424;8.420;2023-04-12T06:13:51;2.20;;;1.00;;
20855;SDS011;63058;49.424;8.420;2023-04-12T06:16:17;2.47;;;1.08;;
20855;SDS011;63058;49.424;8.420;2023-04-12T06:18:42;1.77;;;0.88;;
20855;SDS011;63058;49.424;8.420;2023-04-12T06:21:08;3.38;;;0.98;;
20855;SDS011;63058;49.424;8.420;2023-04-12T06:23:33;3.30;;;1.02;;
20855;SDS011;63058;49.424;8.420;2023-04-12T06:25:59;2.28;;;1.10;;
20855;SDS011;63058;49.424;8.420;2023-04-12T06:28:25;1.17;;;0.82;;
20855;SDS011;63058;49.424;8.420;2023-04-12T06:30:50;1.63;;;1.00;;
20855;SDS011;63058;49.424;8.420;2023-04-12T06:33:16;1.92;;;1.10;;
20855;SDS011;63058;49.424;8.420;2023-04-12T06:35:41;1.73;;;0.90;;
20855;SDS011;63058;49.424;8.420;2023-04-12T06:38:07;2.05;;;1.10;;
20855;SDS011;63058;49.424;8.420;2023-04-12T06:40:33;2.28;;;1.15;;
20855;SDS011;63058;49.424;8.420;2023-04-12T06:42:58;1.38;;;1.00;;
20855;SDS011;63058;49.424;8.420;2023-04-12T06:45:24;3.03;;;0.82;;
20855;SDS011;63058;49.424;8.420;2023-04-12T06:47:50;1.55;;;1.00;;
20855;SDS011;63058;49.424;8.420;2023-04-12T06:50:15;2.60;;;1.25;;
20855;SDS011;63058;49.424;8.420;2023-04-12T06:52:42;2.03;;;1.10;;
20855;SDS011;63058;49.424;8.420;2023-04-12T06:55:08;1.88;;;1.00;;
20855;SDS011;63058;49.424;8.420;2023-04-12T06:57:33;2.30;;;1.23;;
20855;SDS011;63058;49.424;8.420;2023-04-12T06:59:59;1.30;;;1.05;;
20855;SDS011;63058;49.424;8.420;2023-04-12T07:02:26;2.30;;;1.23;;
20855;SDS011;63058;49.424;8.420;2023-04-12T07:04:51;2.83;;;1.15;;
20855;SDS011;63058;49.424;8.420;2023-04-12T07:07:20;3.55;;;1.45;;
20855;SDS011;63058;49.424;8.420;2023-04-12T07:09:46;1.67;;;0.98;;
20855;SDS011;63058;49.424;8.420;2023-04-12T07:12:11;1.35;;;1.00;;
20855;SDS011;63058;49.424;8.420;2023-04-12T07:14:38;1.77;;;0.90;;
20855;SDS011;63058;49.424;8.420;2023-04-12T07:17:03;2.80;;;1.27;;
20855;SDS011;63058;49.424;8.420;2023-04-12T07:19:29;1.75;;;1.15;;
20855;SDS011;63058;49.424;8.420;2023-04-12T07:21:55;2.58;;;0.98;;
20855;SDS011;63058;49.424;8.420;2023-04-12T07:24:21;2.47;;;1.10;;
20855;SDS011;63058;49.424;8.420;2023-04-12T07:26:47;1.55;;;1.05;;
20855;SDS011;63058;49.424;8.420;2023-04-12T07:29:13;1.35;;;1.05;;
20855;SDS011;63058;49.424;8.420;2023-04-12T07:31:38;2.15;;;0.80;;
20855;SDS011;63058;49.424;8.420;2023-04-12T07:34:04;1.42;;;1.00;;
20855;SDS011;63058;49.424;8.420;2023-04-12T07:36:30;1.60;;;1.08;;
20855;SDS011;63058;49.424;8.420;2023-04-12T07:38:56;2.05;;;1.20;;
20855;SDS011;63058;49.424;8.420;2023-04-12T07:41:21;2.78;;;1.20;;
20855;SDS011;63058;49.424;8.420;2023-04-12T07:43:47;2.65;;;1.15;;
20855;SDS011;63058;49.424;8.420;2023-04-12T07:46:13;0.98;;;0.88;;
20855;SDS011;63058;49.424;8.420;2023-04-12T07:48:39;1.73;;;1.10;;
20855;SDS011;63058;49.424;8.420;2023-04-12T07:51:04;2.10;;;1.20;;
20855;SDS011;63058;49.424;8.420;2023-04-12T07:53:30;2.03;;;1.23;;
20855;SDS011;63058;49.424;8.420;2023-04-12T07:55:56;1.67;;;1.08;;
20855;SDS011;63058;49.424;8.420;2023-04-12T07:58:22;1.83;;;1.02;;
20855;SDS011;63058;49.424;8.420;2023-04-12T08:00:48;2.08;;;1.17;;
20855;SDS011;63058;49.424;8.420;2023-04-12T08:03:15;2.67;;;1.05;;
20855;SDS011;63058;49.424;8.420;2023-04-12T08:05:41;2.65;;;1.10;;
20855;SDS011;63058;49.424;8.420;2023-04-12T08:08:08;1.20;;;1.00;;
20855;SDS011;63058;49.424;8.420;2023-04-12T08:10:36;2.08;;;0.95;;
20855;SDS011;63058;49.424;8.420;2023-04-12T08:13:03;1.90;;;1.20;;
20855;SDS011;63058;49.424;8.420;2023-04-12T08:15:29;2.55;;;1.13;;
20855;SDS011;63058;49.424;8.420;2023-04-12T08:17:55;2.00;;;1.05;;
20855;SDS011;63058;49.424;8.420;2023-04-12T08:20:21;3.38;;;1.30;;
20855;SDS011;63058;49.424;8.420;2023-04-12T08:22:47;3.40;;;1.23;;
20855;SDS011;63058;49.424;8.420;2023-04-12T08:25:13;1.75;;;1.08;;
20855;SDS011;63058;49.424;8.420;2023-04-12T08:27:42;1.88;;;0.90;;
20855;SDS011;63058;49.424;8.420;2023-04-12T08:30:08;3.13;;;0.88;;
20855;SDS011;63058;49.424;8.420;2023-04-12T08:32:35;1.60;;;0.75;;
20855;SDS011;63058;49.424;8.420;2023-04-12T08:35:04;1.20;;;1.00;;
20855;SDS011;63058;49.424;8.420;2023-04-12T08:37:30;3.00;;;1.30;;
20855;SDS011;63058;49.424;8.420;2023-04-12T08:39:57;1.55;;;1.00;;
20855;SDS011;63058;49.424;8.420;2023-04-12T08:42:25;3.05;;;1.33;;
20855;SDS011;63058;49.424;8.420;2023-04-12T08:44:50;2.17;;;1.40;;
20855;SDS011;63058;49.424;8.420;2023-04-12T08:47:17;3.30;;;1.75;;
20855;SDS011;63058;49.424;8.420;2023-04-12T08:49:45;4.43;;;1.80;;
20855;SDS011;63058;49.424;8.420;2023-04-12T08:52:10;2.97;;;1.77;;
20855;SDS011;63058;49.424;8.420;2023-04-12T08:54:36;3.10;;;1.98;;
20855;SDS011;63058;49.424;8.420;2023-04-12T08:57:03;5.15;;;1.92;;
20855;SDS011;63058;49.424;8.420;2023-04-12T08:59:31;3.95;;;2.20;;
20855;SDS011;63058;49.424;8.420;2023-04-12T09:02:00;5.43;;;2.65;;
20855;SDS011;63058;49.424;8.420;2023-04-12T09:04:26;4.35;;;2.70;;
20855;SDS011;63058;49.424;8.420;2023-04-12T09:06:52;5.63;;;2.80;;
20855;SDS011;63058;49.424;8.420;2023-04-12T09:09:17;4.82;;;2.88;;
20855;SDS011;63058;49.424;8.420;2023-04-12T09:11:43;3.85;;;2.60;;
20855;SDS011;63058;49.424;8.420;2023-04-12T09:14:21;5.50;;;2.97;;
20855;SDS011;63058;49.424;8.420;2023-04-12T09:16:49;4.30;;;2.53;;
20855;SDS011;63058;49.424;8.420;2023-04-12T09:19:15;4.53;;;2.80;;
20855;SDS011;63058;49.424;8.420;2023-04-12T09:21:55;4.88;;;2.58;;
20855;SDS011;63058;49.424;8.420;2023-04-12T09:24:21;3.95;;;2.40;;
20855;SDS011;63058;49.424;8.420;2023-04-12T09:27:00;3.05;;;1.90;;
20855;SDS011;63058;49.424;8.420;2023-04-12T09:29:26;5.85;;;2.22;;
20855;SDS011;63058;49.424;8.420;2023-04-12T09:31:58;4.85;;;2.30;;
20855;SDS011;63058;49.424;8.420;2023-04-12T09:34:28;4.03;;;2.08;;
20855;SDS011;63058;49.424;8.420;2023-04-12T09:36:55;5.43;;;2.33;;
20855;SDS011;63058;49.424;8.420;2023-04-12T09:39:30;3.97;;;2.00;;
20855;SDS011;63058;49.424;8.420;2023-04-12T09:42:10;3.95;;;1.60;;
20855;SDS011;63058;49.424;8.420;2023-04-12T09:44:38;3.25;;;1.58;;
20855;SDS011;63058;49.424;8.420;2023-04-12T09:47:04;2.50;;;1.48;;
20855;SDS011;63058;49.424;8.420;2023-04-12T09:49:40;3.45;;;1.90;;
20855;SDS011;63058;49.424;8.420;2023-04-12T09:52:07;4.03;;;1.70;;
20855;SDS011;63058;49.424;8.420;2023-04-12T09:54:41;5.35;;;2.03;;
20855;SDS011;63058;49.424;8.420;2023-04-12T09:57:08;4.82;;;1.90;;
20855;SDS011;63058;49.424;8.420;2023-04-12T09:59:35;4.55;;;1.85;;
20855;SDS011;63058;49.424;8.420;2023-04-12T10:02:11;4.55;;;1.70;;
20855;SDS011;63058;49.424;8.420;2023-04-12T10:04:40;4.47;;;1.83;;
20855;SDS011;63058;49.424;8.420;2023-04-12T10:07:07;3.00;;;1.63;;
20855;SDS011;63058;49.424;8.420;2023-04-12T10:09:33;3.90;;;2.00;;
20855;SDS011;63058;49.424;8.420;2023-04-12T10:12:01;4.32;;;2.20;;
20855;SDS011;63058;49.424;8.420;2023-04-12T10:14:27;4.97;;;2.20;;
20855;SDS011;63058;49.424;8.420;2023-04-12T10:16:57;2.72;;;1.60;;
20855;SDS011;63058;49.424;8.420;2023-04-12T10:19:25;4.07;;;1.98;;
20855;SDS011;63058;49.424;8.420;2023-04-12T10:21:53;4.88;;;1.83;;
20855;SDS011;63058;49.424;8.420;2023-04-12T10:24:26;3.67;;;1.90;;
20855;SDS011;63058;49.424;8.420;2023-04-12T10:26:53;5.30;;;2.05;;
20855;SDS011;63058;49.424;8.420;2023-04-12T10:31:51;3.00;;;1.67;;
20855;SDS011;63058;49.424;8.420;2023-04-12T10:34:22;4.30;;;2.00;;
20855;SDS011;63058;49.424;8.420;2023-04-12T10:36:49;3.28;;;1.70;;
20855;SDS011;63058;49.424;8.420;2023-04-12T10:40:01;4.93;;;2.00;;
20855;SDS011;63058;49.424;8.420;2023-04-12T10:42:17;3.05;;;1.45;;
20855;SDS011;63058;49.424;8.420;2023-04-12T10:44:48;3.65;;;1.77;;
20855;SDS011;63058;49.424;8.420;2023-04-12T10:50:22;5.97;;;1.80;;
20855;SDS011;63058;49.424;8.420;2023-04-12T10:55:37;2.85;;;1.80;;
20855;SDS011;63058;49.424;8.420;2023-04-12T10:58:03;5.28;;;2.10;;
20855;SDS011;63058;49.424;8.420;2023-04-12T11:03:22;4.15;;;1.83;;
20855;SDS011;63058;49.424;8.420;2023-04-12T11:06:10;4.18;;;2.05;;
20855;SDS011;63058;49.424;8.420;2023-04-12T11:08:37;3.83;;;1.58;;
20855;SDS011;63058;49.424;8.420;2023-04-12T11:11:17;3.15;;;1.73;;
20855;SDS011;63058;49.424;8.420;2023-04-12T11:13:44;2.70;;;1.58;;
20855;SDS011;63058;49.424;8.420;2023-04-12T11:16:10;2.72;;;1.80;;
20855;SDS011;63058;49.424;8.420;2023-04-12T11:18:39;3.78;;;1.80;;
20855;SDS011;63058;49.424;8.420;2023-04-12T11:21:05;3.13;;;1.77;;
20855;SDS011;63058;49.424;8.420;2023-04-12T11:23:31;2.83;;;1.75;;
20855;SDS011;63058;49.424;8.420;2023-04-12T11:25:57;4.22;;;1.70;;
20855;SDS011;63058;49.424;8.420;2023-04-12T11:28:23;2.42;;;1.58;;
20855;SDS011;63058;49.424;8.420;2023-04-12T11:30:55;6.85;;;2.20;;
20855;SDS011;63058;49.424;8.420;2023-04-12T11:33:31;3.70;;;1.90;;
20855;SDS011;63058;49.424;8.420;2023-04-12T11:35:57;3.55;;;1.80;;
20855;SDS011;63058;49.424;8.420;2023-04-12T11:38:23;4.57;;;1.90;;
20855;SDS011;63058;49.424;8.420;2023-04-12T11:40:48;4.18;;;1.65;;
20855;SDS011;63058;49.424;8.420;2023-04-12T11:43:18;2.45;;;1.80;;
20855;SDS011;63058;49.424;8.420;2023-04-12T11:45:44;4.70;;;1.70;;
20855;SDS011;63058;49.424;8.420;2023-04-12T11:48:10;3.70;;;1.85;;
20855;SDS011;63058;49.424;8.420;2023-04-12T11:50:36;3.85;;;1.77;;
20855;SDS011;63058;49.424;8.420;2023-04-12T11:53:10;2.65;;;1.75;;
20855;SDS011;63058;49.424;8.420;2023-04-12T11:55:36;4.13;;;1.42;;
20855;SDS011;63058;49.424;8.420;2023-04-12T11:58:02;2.42;;;1.52;;
20855;SDS011;63058;49.424;8.420;2023-04-12T12:00:27;3.15;;;1.80;;
20855;SDS011;63058;49.424;8.420;2023-04-12T12:02:55;2.83;;;1.60;;
20855;SDS011;63058;49.424;8.420;2023-04-12T12:05:21;4.93;;;1.65;;
20855;SDS011;63058;49.424;8.420;2023-04-12T12:07:47;2.70;;;1.50;;
20855;SDS011;63058;49.424;8.420;2023-04-12T12:10:13;3.03;;;1.27;;
20855;SDS011;63058;49.424;8.420;2023-04-12T12:12:41;2.17;;;1.25;;
20855;SDS011;63058;49.424;8.420;2023-04-12T12:15:08;3.45;;;1.42;;
20855;SDS011;63058;49.424;8.420;2023-04-12T12:17:35;2.22;;;1.30;;
20855;SDS011;63058;49.424;8.420;2023-04-12T12:20:02;2.60;;;1.55;;
20855;SDS011;63058;49.424;8.420;2023-04-12T12:22:28;3.20;;;1.63;;
20855;SDS011;63058;49.424;8.420;2023-04-12T12:24:55;2.72;;;1.48;;
20855;SDS011;63058;49.424;8.420;2023-04-12T12:27:42;3.47;;;1.42;;
20855;SDS011;63058;49.424;8.420;2023-04-12T12:30:12;2.70;;;1.60;;
20855;SDS011;63058;49.424;8.420;2023-04-12T12:32:41;2.53;;;1.50;;
20855;SDS011;63058;49.424;8.420;2023-04-12T12:35:11;4.95;;;1.73;;
20855;SDS011;63058;49.424;8.420;2023-04-12T12:37:46;3.00;;;1.83;;
20855;SDS011;63058;49.424;8.420;2023-04-12T12:40:14;3.55;;;1.70;;
20855;SDS011;63058;49.424;8.420;2023-04-12T12:42:47;4.18;;;1.60;;
20855;SDS011;63058;49.424;8.420;2023-04-12T12:45:17;3.42;;;1.70;;
20855;SDS011;63058;49.424;8.420;2023-04-12T12:47:54;2.22;;;1.33;;
20855;SDS011;63058;49.424;8.420;2023-04-12T12:50:24;3.90;;;1.67;;
20855;SDS011;63058;49.424;8.420;2023-04-12T12:52:51;3.97;;;1.40;;
20855;SDS011;63058;49.424;8.420;2023-04-12T12:55:18;3.75;;;1.65;;
20855;SDS011;63058;49.424;8.420;2023-04-12T12:57:53;2.60;;;1.60;;
20855;SDS011;63058;49.424;8.420;2023-04-12T13:00:22;2.78;;;1.77;;
20855;SDS011;63058;49.424;8.420;2023-04-12T13:02:48;3.22;;;1.77;;
20855;SDS011;63058;49.424;8.420;2023-04-12T13:05:17;3.70;;;1.67;;
20855;SDS011;63058;49.424;8.420;2023-04-12T13:07:44;5.63;;;1.40;;
20855;SDS011;63058;49.424;8.420;2023-04-12T13:10:11;2.63;;;1.40;;
20855;SDS011;63058;49.424;8.420;2023-04-12T13:12:37;2.10;;;1.40;;
20855;SDS011;63058;49.424;8.420;2023-04-12T13:15:03;3.90;;;1.50;;
20855;SDS011;63058;49.424;8.420;2023-04-12T13:17:29;3.10;;;1.48;;
20855;SDS011;63058;49.424;8.420;2023-04-12T13:19:55;4.10;;;1.50;;
20855;SDS011;63058;49.424;8.420;2023-04-12T13:22:23;4.15;;;1.52;;
20855;SDS011;63058;49.424;8.420;2023-04-12T13:24:51;3.20;;;1.92;;
20855;SDS011;63058;49.424;8.420;2023-04-12T13:27:17;4.00;;;1.63;;
20855;SDS011;63058;49.424;8.420;2023-04-12T13:29:43;4.63;;;2.00;;
20855;SDS011;63058;49.424;8.420;2023-04-12T13:32:11;3.17;;;1.75;;
20855;SDS011;63058;49.424;8.420;2023-04-12T13:34:41;5.60;;;1.88;;
20855;SDS011;63058;49.424;8.420;2023-04-12T13:37:07;3.60;;;2.10;;
20855;SDS011;63058;49.424;8.420;2023-04-12T13:39:35;3.88;;;2.00;;
20855;SDS011;63058;49.424;8.420;2023-04-12T13:42:00;4.70;;;1.77;;
20855;SDS011;63058;49.424;8.420;2023-04-12T13:44:26;4.65;;;2.80;;
20855;SDS011;63058;49.424;8.420;2023-04-12T13:46:52;3.72;;;2.42;;
20855;SDS011;63058;49.424;8.420;2023-04-12T13:49:18;3.78;;;2.15;;
20855;SDS011;63058;49.424;8.420;2023-04-12T13:51:44;4.80;;;2.03;;
20855;SDS011;63058;49.424;8.420;2023-04-12T13:54:09;3.70;;;2.00;;
20855;SDS011;63058;49.424;8.420;2023-04-12T13:56:35;4.07;;;2.60;;
20855;SDS011;63058;49.424;8.420;2023-04-12T13:59:01;4.38;;;2.15;;
20855;SDS011;63058;49.424;8.420;2023-04-12T14:01:27;3.83;;;2.10;;
20855;SDS011;63058;49.424;8.420;2023-04-12T14:03:53;3.22;;;2.00;;
20855;SDS011;63058;49.424;8.420;2023-04-12T14:06:19;2.83;;;1.77;;
20855;SDS011;63058;49.424;8.420;2023-04-12T14:08:45;2.75;;;1.95;;
20855;SDS011;63058;49.424;8.420;2023-04-12T14:11:10;3.75;;;2.00;;
20855;SDS011;63058;49.424;8.420;2023-04-12T14:13:36;3.05;;;1.73;;
20855;SDS011;63058;49.424;8.420;2023-04-12T14:16:01;4.32;;;1.60;;
20855;SDS011;63058;49.424;8.420;2023-04-12T14:18:27;2.53;;;0.90;;
20855;SDS011;63058;49.424;8.420;2023-04-12T14:20:53;1.67;;;1.00;;
20855;SDS011;63058;49.424;8.420;2023-04-12T14:23:21;1.05;;;0.60;;
20855;SDS011;63058;49.424;8.420;2023-04-12T14:25:49;1.30;;;0.70;;
20855;SDS011;63058;49.424;8.420;2023-04-12T14:28:15;1.42;;;0.60;;
20855;SDS011;63058;49.424;8.420;2023-04-12T14:30:41;1.42;;;0.40;;
20855;SDS011;63058;49.424;8.420;2023-04-12T14:33:08;1.30;;;0.50;;
20855;SDS011;63058;49.424;8.420;2023-04-12T14:35:35;0.85;;;0.60;;
20855;SDS011;63058;49.424;8.420;2023-04-12T14:38:00;0.60;;;0.40;;
20855;SDS011;63058;49.424;8.420;2023-04-12T14:40:26;0.45;;;0.40;;
20855;SDS011;63058;49.424;8.420;2023-04-12T14:42:52;1.15;;;0.60;;
20855;SDS011;63058;49.424;8.420;2023-04-12T14:45:17;1.50;;;0.70;;
20855;SDS011;63058;49.424;8.420;2023-04-12T14:47:44;1.08;;;0.70;;
20855;SDS011;63058;49.424;8.420;2023-04-12T14:50:10;1.00;;;0.70;;
20855;SDS011;63058;49.424;8.420;2023-04-12T14:52:36;1.05;;;0.90;;
20855;SDS011;63058;49.424;8.420;2023-04-12T14:55:01;1.23;;;0.60;;
20855;SDS011;63058;49.424;8.420;2023-04-12T14:57:28;0.60;;;0.60;;
20855;SDS011;63058;49.424;8.420;2023-04-12T14:59:54;0.55;;;0.50;;
20855;SDS011;63058;49.424;8.420;2023-04-12T15:02:20;1.05;;;0.60;;
20855;SDS011;63058;49.424;8.420;2023-04-12T15:04:49;0.90;;;0.50;;
20855;SDS011;63058;49.424;8.420;2023-04-12T15:07:15;0.73;;;0.60;;